createdAt,value
2023-04-06T04:05:58.616Z,101568.56
2023-04-06T04:08:27.505Z,101574.88
2023-04-06T04:11:05.382Z,101585.28
2023-04-06T04:13:32.798Z,101586.56
2023-04-06T04:16:01.288Z,101593.50
2023-04-06T04:18:29.204Z,101587.41
2023-04-06T04:20:56.962Z,101587.94
2023-04-06T04:23:25.138Z,101587.75
2023-04-06T04:25:52.990Z,101585.00
2023-04-06T04:28:20.722Z,101585.72
2023-04-06T04:30:48.454Z,101590.22
2023-04-06T04:33:16.939Z,101588.38
2023-04-06T04:35:45.921Z,101585.28
2023-04-06T04:38:17.638Z,101585.41
2023-04-06T04:40:50.336Z,101592.66
2023-04-06T04:43:17.616Z,101594.81
2023-04-06T04:45:46.153Z,101596.25
2023-04-06T04:48:24.108Z,101600.25
2023-04-06T04:50:57.168Z,101608.56
2023-04-06T04:53:29.349Z,101604.78
2023-04-06T04:56:03.019Z,101606.88
2023-04-06T04:58:31.283Z,101604.06
2023-04-06T05:01:01.401Z,101604.44
2023-04-06T05:03:29.840Z,101599.97
2023-04-06T05:06:05.490Z,101606.78
2023-04-06T05:08:35.703Z,101611.75
2023-04-06T05:11:03.508Z,101610.09
2023-04-06T05:13:35.697Z,101607.16
2023-04-06T05:16:08.830Z,101599.84
2023-04-06T05:18:37.761Z,101611.28
2023-04-06T05:21:07.123Z,101613.13
2023-04-06T05:23:46.933Z,101606.38
2023-04-06T05:26:14.418Z,101607.44
2023-04-06T05:28:43.494Z,101615.63
2023-04-06T05:31:11.976Z,101609.78
2023-04-06T05:33:47.193Z,101608.09
2023-04-06T05:36:17.217Z,101611.44
2023-04-06T05:38:47.277Z,101618.75
2023-04-06T05:41:30.691Z,101622.69
2023-04-06T05:43:58.658Z,101613.47
2023-04-06T05:46:27.521Z,101616.28
2023-04-06T05:48:57.329Z,101617.47
2023-04-06T05:51:28.349Z,101616.97
2023-04-06T05:53:55.892Z,101620.13
2023-04-06T05:56:24.757Z,101620.72
2023-04-06T05:58:52.421Z,101621.41
2023-04-06T06:01:25.819Z,101618.72
2023-04-06T06:03:53.333Z,101616.03
2023-04-06T06:06:21.845Z,101616.72
2023-04-06T06:09:10.065Z,101616.41
2023-04-06T06:11:43.853Z,101618.53
2023-04-06T06:14:14.446Z,101619.75
2023-04-06T06:16:42.690Z,101623.69
2023-04-06T06:19:13.379Z,101625.69
2023-04-06T06:21:41.544Z,101621.13
2023-04-06T06:24:10.533Z,101622.25
2023-04-06T06:26:40.448Z,101629.31
2023-04-06T06:29:09.051Z,101629.78
2023-04-06T06:31:39.712Z,101620.88
2023-04-06T06:34:07.430Z,101621.66
2023-04-06T06:36:36.724Z,101618.00
2023-04-06T06:39:08.092Z,101620.28
2023-04-06T06:41:36.797Z,101617.81
2023-04-06T06:44:04.979Z,101621.44
2023-04-06T06:46:32.541Z,101623.59
2023-04-06T06:49:01.241Z,101627.16
2023-04-06T06:51:29.078Z,101622.28
2023-04-06T06:53:56.464Z,101629.25
2023-04-06T06:56:23.883Z,101629.03
2023-04-06T06:58:52.986Z,101627.47
2023-04-06T07:01:21.332Z,101634.78
2023-04-06T07:03:49.684Z,101633.69
2023-04-06T07:06:16.993Z,101646.44
2023-04-06T07:08:44.313Z,101641.75
2023-04-06T07:11:11.830Z,101643.25
2023-04-06T07:13:39.559Z,101648.16
2023-04-06T07:16:07.399Z,101651.63
2023-04-06T07:18:36.260Z,101643.44
2023-04-06T07:21:05.550Z,101642.88
2023-04-06T07:23:33.418Z,101640.16
2023-04-06T07:26:00.886Z,101642.63
2023-04-06T07:28:28.382Z,101649.00
2023-04-06T07:30:56.422Z,101650.22
2023-04-06T07:33:23.805Z,101643.66
2023-04-06T07:35:53.486Z,101647.91
2023-04-06T07:38:21.437Z,101647.16
2023-04-06T07:40:49.473Z,101655.09
2023-04-06T07:43:18.730Z,101646.16
2023-04-06T07:45:46.416Z,101653.94
2023-04-06T07:48:17.189Z,101650.31
2023-04-06T07:50:46.415Z,101645.00
2023-04-06T07:53:13.822Z,101641.97
2023-04-06T07:55:42.068Z,101649.44
2023-04-06T07:58:09.895Z,101639.56
2023-04-06T08:00:37.939Z,101644.84
2023-04-06T08:03:06.660Z,101645.72
2023-04-06T08:05:34.187Z,101644.00
2023-04-06T08:08:01.632Z,101629.72
2023-04-06T08:10:28.894Z,101637.50
2023-04-06T08:12:56.729Z,101629.03
2023-04-06T08:15:24.577Z,101633.47
2023-04-06T08:17:52.118Z,101630.34
2023-04-06T08:20:19.501Z,101629.53
2023-04-06T08:22:46.862Z,101624.88
2023-04-06T08:25:14.226Z,101625.34
2023-04-06T08:27:41.771Z,101624.00
2023-04-06T08:30:10.689Z,101616.47
2023-04-06T08:32:38.210Z,101624.75
2023-04-06T08:35:05.735Z,101623.94
2023-04-06T08:37:33.585Z,101622.75
2023-04-06T08:40:01.130Z,101618.53
2023-04-06T08:42:32.854Z,101623.50
2023-04-06T08:45:01.361Z,101628.41
2023-04-06T08:47:29.113Z,101627.53
2023-04-06T08:49:57.298Z,101623.06
2023-04-06T08:52:27.848Z,101626.59
2023-04-06T08:54:55.322Z,101619.31
2023-04-06T08:57:24.150Z,101624.59
2023-04-06T08:59:53.313Z,101614.81
2023-04-06T09:02:21.464Z,101612.81
2023-04-06T09:04:50.615Z,101611.91
2023-04-06T09:07:18.269Z,101601.47
2023-04-06T09:09:49.343Z,101594.63
2023-04-06T09:12:27.850Z,101598.97
2023-04-06T09:14:57.046Z,101599.63
2023-04-06T09:17:27.308Z,101596.38
2023-04-06T09:19:56.028Z,101594.78
2023-04-06T09:22:26.624Z,101593.25
2023-04-06T09:24:55.710Z,101587.91
2023-04-06T09:27:33.410Z,101595.63
2023-04-06T09:30:09.719Z,101587.16
2023-04-06T09:32:52.509Z,101588.88
2023-04-06T09:35:23.265Z,101590.06
2023-04-06T09:37:52.775Z,101589.41
2023-04-06T09:40:22.048Z,101582.72
2023-04-06T09:42:53.454Z,101578.00
2023-04-06T09:45:21.892Z,101583.69
2023-04-06T09:47:52.503Z,101573.88
2023-04-06T09:50:21.124Z,101577.66
2023-04-06T09:52:51.852Z,101571.69
2023-04-06T09:55:27.627Z,101571.22
2023-04-06T09:58:10.457Z,101569.06
2023-04-06T10:00:48.533Z,101567.72
2023-04-06T10:03:26.905Z,101567.47
2023-04-06T10:06:01.098Z,101565.03
2023-04-06T10:08:32.541Z,101561.06
2023-04-06T10:11:01.860Z,101569.56
2023-04-06T10:13:29.639Z,101562.97
2023-04-06T10:15:58.227Z,101555.97
2023-04-06T10:18:25.791Z,101557.56
2023-04-06T10:21:10.294Z,101546.03
2023-04-06T10:23:50.229Z,101537.56
2023-04-06T10:26:21.737Z,101540.03
2023-04-06T10:28:51.518Z,101531.19
2023-04-06T10:31:29.704Z,101532.81
2023-04-06T10:34:02.054Z,101529.88
2023-04-06T10:36:34.147Z,101526.38
2023-04-06T10:39:04.812Z,101535.03
2023-04-06T10:41:36.872Z,101523.84
2023-04-06T10:44:05.544Z,101524.13
2023-04-06T10:46:35.472Z,101528.31
2023-04-06T10:49:15.499Z,101523.53
2023-04-06T10:51:43.268Z,101516.13
2023-04-06T10:54:12.436Z,101514.50
2023-04-06T10:56:40.361Z,101507.81
2023-04-06T10:59:08.666Z,101519.56
2023-04-06T11:01:36.239Z,101508.16
2023-04-06T11:04:04.313Z,101512.44
2023-04-06T11:06:33.374Z,101509.69
2023-04-06T11:09:01.317Z,101501.34
2023-04-06T11:11:28.936Z,101494.66
2023-04-06T11:13:58.693Z,101485.88
2023-04-06T11:16:29.775Z,101500.88
2023-04-06T11:19:07.350Z,101489.50
2023-04-06T11:21:48.314Z,101480.78
2023-04-06T11:24:21.799Z,101477.75
2023-04-06T11:26:58.190Z,101472.38
2023-04-06T11:29:31.853Z,101469.63
2023-04-06T11:32:08.042Z,101471.91
2023-04-06T11:34:39.446Z,101462.63
2023-04-06T11:37:12.562Z,101452.66
2023-04-06T11:39:42.656Z,101460.16
2023-04-06T11:42:10.746Z,101452.34
2023-04-06T11:44:47.007Z,101457.69
2023-04-06T11:47:14.504Z,101445.56
2023-04-06T11:49:43.887Z,101450.03
2023-04-06T11:52:23.175Z,101444.34
2023-04-06T11:54:52.822Z,101435.34
2023-04-06T11:57:21.961Z,101440.31
2023-04-06T11:59:50.805Z,101432.91
2023-04-06T12:02:18.959Z,101432.75
2023-04-06T12:04:46.919Z,101429.78
2023-04-06T12:07:14.497Z,101427.44
2023-04-06T12:09:42.364Z,101418.63
2023-04-06T12:12:09.619Z,101418.41
2023-04-06T12:14:37.019Z,101418.47
2023-04-06T12:17:04.751Z,101409.84
2023-04-06T12:19:32.572Z,101397.19
2023-04-06T12:22:00.749Z,101387.25
2023-04-06T12:24:29.638Z,101390.28
2023-04-06T12:27:08.760Z,101387.63
2023-04-06T12:29:39.792Z,101386.75
2023-04-06T12:32:07.768Z,101383.16
2023-04-06T12:34:35.918Z,101401.00
2023-04-06T12:37:03.301Z,101380.66
2023-04-06T12:39:31.167Z,101380.22
2023-04-06T12:41:58.919Z,101373.06
2023-04-06T12:44:27.265Z,101371.44
2023-04-06T12:46:55.113Z,101360.41
2023-04-06T12:49:22.873Z,101360.91
2023-04-06T12:51:51.231Z,101356.19
2023-04-06T12:54:18.759Z,101358.13
2023-04-06T12:56:46.490Z,101355.88
2023-04-06T12:59:14.542Z,101347.16
2023-04-06T13:01:42.356Z,101354.13
2023-04-06T13:04:09.906Z,101356.72
2023-04-06T13:06:37.844Z,101354.31
2023-04-06T13:09:06.529Z,101339.56
2023-04-06T13:11:34.020Z,101330.94
2023-04-06T13:14:01.352Z,101330.13
2023-04-06T13:16:28.961Z,101324.25
2023-04-06T13:18:56.767Z,101317.94
2023-04-06T13:21:24.744Z,101321.31
2023-04-06T13:23:52.598Z,101314.91
2023-04-06T13:26:20.840Z,101314.97
2023-04-06T13:28:48.821Z,101316.88
2023-04-06T13:31:16.228Z,101309.03
2023-04-06T13:33:44.044Z,101305.16
2023-04-06T13:36:11.450Z,101295.22
2023-04-06T13:38:40.021Z,101297.91
2023-04-06T13:41:07.759Z,101300.91
2023-04-06T13:43:35.789Z,101291.72
2023-04-06T13:46:03.731Z,101286.41
2023-04-06T13:48:31.545Z,101283.25
2023-04-06T13:50:59.425Z,101266.63
2023-04-06T13:53:27.204Z,101278.94
2023-04-06T13:55:56.760Z,101274.94
2023-04-06T13:58:24.378Z,101282.03
2023-04-06T14:00:52.327Z,101285.97
2023-04-06T14:03:22.747Z,101281.53
2023-04-06T14:05:50.380Z,101265.19
2023-04-06T14:08:17.754Z,101257.16
2023-04-06T14:10:45.491Z,101266.19
2023-04-06T14:13:12.862Z,101255.03
2023-04-06T14:15:40.668Z,101256.22
2023-04-06T14:18:08.997Z,101253.34
2023-04-06T14:20:36.394Z,101251.81
2023-04-06T14:23:04.445Z,101232.03
2023-04-06T14:25:33.254Z,101216.06
2023-04-06T14:28:00.740Z,101213.56
2023-04-06T14:30:28.946Z,101206.84
2023-04-06T14:33:00.796Z,101227.88
2023-04-06T14:35:29.274Z,101225.25
2023-04-06T14:38:01.567Z,101219.63
2023-04-06T14:40:28.922Z,101223.22
2023-04-06T14:42:57.493Z,101220.53
2023-04-06T14:45:25.032Z,101222.34
2023-04-06T14:47:52.801Z,101235.06
2023-04-06T14:50:20.693Z,101227.34
2023-04-06T14:52:48.372Z,101221.63
2023-04-06T14:55:16.602Z,101218.44
2023-04-06T14:57:44.249Z,101229.13
2023-04-06T15:00:12.322Z,101220.50
2023-04-06T15:02:41.158Z,101213.56
2023-04-06T15:05:09.953Z,101211.66
2023-04-06T15:07:37.257Z,101213.56
2023-04-06T15:10:06.095Z,101208.00
2023-04-06T15:12:36.256Z,101195.41
2023-04-06T15:15:06.061Z,101195.03
2023-04-06T15:17:33.822Z,101200.69
2023-04-06T15:20:01.611Z,101202.63
2023-04-06T15:22:29.437Z,101198.72
2023-04-06T15:24:56.689Z,101193.44
2023-04-06T15:27:24.361Z,101196.66
2023-04-06T15:29:51.780Z,101192.97
2023-04-06T15:32:19.519Z,101194.44
2023-04-06T15:34:46.847Z,101178.22
2023-04-06T15:37:14.157Z,101192.47
2023-04-06T15:39:41.785Z,101195.94
2023-04-06T15:42:09.138Z,101189.91
2023-04-06T15:44:36.667Z,101188.25
2023-04-06T15:47:04.859Z,101190.72
2023-04-06T15:49:32.951Z,101201.06
2023-04-06T15:52:00.473Z,101207.94
2023-04-06T15:54:27.833Z,101199.34
2023-04-06T15:56:56.875Z,101204.84
2023-04-06T15:59:24.678Z,101200.69
2023-04-06T16:01:52.073Z,101196.03
2023-04-06T16:04:19.421Z,101200.22
2023-04-06T16:06:47.218Z,101210.41
2023-04-06T16:09:16.005Z,101208.13
2023-04-06T16:11:44.084Z,101210.59
2023-04-06T16:14:11.669Z,101201.56
2023-04-06T16:16:39.925Z,101201.47
2023-04-06T16:19:07.620Z,101200.53
2023-04-06T16:21:35.861Z,101197.84
2023-04-06T16:24:04.534Z,101194.66
2023-04-06T16:26:31.928Z,101189.38
2023-04-06T16:28:59.408Z,101200.13
2023-04-06T16:31:27.234Z,101191.16
2023-04-06T16:33:56.480Z,101203.97
2023-04-06T16:36:28.764Z,101195.91
2023-04-06T16:38:57.491Z,101207.22
2023-04-06T16:41:26.520Z,101203.06
2023-04-06T16:43:57.368Z,101202.69
2023-04-06T16:46:31.452Z,101204.50
2023-04-06T16:49:00.382Z,101207.84
2023-04-06T16:51:28.527Z,101197.41
2023-04-06T16:53:56.044Z,101212.25
2023-04-06T16:56:23.680Z,101208.13
2023-04-06T16:58:51.558Z,101200.44
2023-04-06T17:01:24.142Z,101205.63
2023-04-06T17:03:52.958Z,101209.00
2023-04-06T17:06:20.831Z,101208.16
2023-04-06T17:08:48.590Z,101208.53
2023-04-06T17:11:20.303Z,101206.72
2023-04-06T17:13:51.589Z,101203.22
2023-04-06T17:16:19.506Z,101213.66
2023-04-06T17:18:46.969Z,101209.75
2023-04-06T17:21:16.854Z,101206.94
2023-04-06T17:23:44.753Z,101206.44
2023-04-06T17:26:12.607Z,101209.63
2023-04-06T17:28:40.452Z,101209.41
2023-04-06T17:31:12.363Z,101206.03
2023-04-06T17:33:41.120Z,101210.78
2023-04-06T17:36:12.429Z,101208.31
2023-04-06T17:38:43.816Z,101210.47
2023-04-06T17:41:13.764Z,101207.84
2023-04-06T17:43:41.226Z,101212.84
2023-04-06T17:46:09.276Z,101209.06
2023-04-06T17:48:37.314Z,101209.53
2023-04-06T17:51:06.123Z,101209.41
2023-04-06T17:53:34.468Z,101212.59
2023-04-06T17:56:03.829Z,101221.22
2023-04-06T17:58:31.539Z,101218.06
2023-04-06T18:00:58.900Z,101229.00
2023-04-06T18:03:27.099Z,101227.13
2023-04-06T18:05:54.840Z,101223.97
2023-04-06T18:08:22.540Z,101227.97
2023-04-06T18:10:50.229Z,101230.06
2023-04-06T18:13:17.541Z,101232.16
2023-04-06T18:15:45.675Z,101236.59
2023-04-06T18:18:13.062Z,101233.44
2023-04-06T18:20:41.695Z,101238.72
2023-04-06T18:23:09.689Z,101248.59
2023-04-06T18:25:40.799Z,101246.72
2023-04-06T18:28:09.357Z,101253.63
2023-04-06T18:30:37.207Z,101249.63
2023-04-06T18:33:06.484Z,101254.06
2023-04-06T18:35:33.844Z,101261.00
2023-04-06T18:38:01.627Z,101259.94
2023-04-06T18:40:32.935Z,101254.88
2023-04-06T18:43:01.066Z,101270.47
2023-04-06T18:45:28.634Z,101261.19
2023-04-06T18:47:57.249Z,101268.88
2023-04-06T18:50:25.561Z,101269.41
2023-04-06T18:52:53.679Z,101277.09
2023-04-06T18:55:21.139Z,101273.06
2023-04-06T18:57:49.072Z,101274.69
2023-04-06T19:00:17.775Z,101275.19
2023-04-06T19:02:46.122Z,101277.69
2023-04-06T19:05:14.490Z,101287.28
2023-04-06T19:07:43.293Z,101284.78
2023-04-06T19:10:11.049Z,101290.56
2023-04-06T19:12:40.028Z,101292.88
2023-04-06T19:15:08.770Z,101291.91
2023-04-06T19:17:37.387Z,101290.31
2023-04-06T19:20:05.508Z,101293.94
2023-04-06T19:22:36.783Z,101297.91
2023-04-06T19:25:07.984Z,101306.31
2023-04-06T19:27:35.358Z,101301.94
2023-04-06T19:30:04.068Z,101301.94
2023-04-06T19:32:31.649Z,101300.91
2023-04-06T19:35:01.421Z,101297.09
2023-04-06T19:37:29.145Z,101307.09
2023-04-06T19:39:57.015Z,101304.19
2023-04-06T19:42:25.260Z,101304.88
2023-04-06T19:44:53.693Z,101305.72
2023-04-06T19:47:21.675Z,101312.13
2023-04-06T19:49:50.669Z,101305.66
2023-04-06T19:52:19.575Z,101313.50
2023-04-06T19:54:47.051Z,101312.94
2023-04-06T19:57:15.630Z,101313.44
2023-04-06T19:59:43.611Z,101309.16
2023-04-06T20:02:11.514Z,101318.44
2023-04-06T20:04:39.359Z,101322.47
2023-04-06T20:07:07.285Z,101326.41
2023-04-06T20:09:34.661Z,101318.88
2023-04-06T20:12:02.017Z,101313.44
2023-04-06T20:14:30.542Z,101322.13
2023-04-06T20:16:59.983Z,101319.03
2023-04-06T20:19:27.309Z,101320.56
2023-04-06T20:21:54.715Z,101320.03
2023-04-06T20:24:22.149Z,101318.47
2023-04-06T20:26:50.746Z,101317.34
2023-04-06T20:29:18.113Z,101319.19
2023-04-06T20:31:45.844Z,101318.13
2023-04-06T20:34:13.978Z,101313.06
2023-04-06T20:36:42.015Z,101312.59
2023-04-06T20:39:09.296Z,101316.59
2023-04-06T20:41:36.535Z,101311.69
2023-04-06T20:44:04.296Z,101312.84
2023-04-06T20:46:31.743Z,101314.97
2023-04-06T20:48:59.601Z,101319.34
2023-04-06T20:51:27.927Z,101312.22
2023-04-06T20:53:56.827Z,101318.34
2023-04-06T20:56:24.166Z,101309.44
